Time;durP1;ratioP1;P1;durP2;ratioP2;P2;SDS_P1;SDS_P2;PMS_P1;PMS_P2;Temp;Humidity;BMP_temperature;BMP_pressure;BME280_temperature;BME280_humidity;BME280_pressure;Samples;Min_cycle;Max_cycle;Signal;HPM_P1;HPM_P2
2022/06/25 00:00:23;;;;;;;;;;;14.80;99.90;;;;;;5095605;28;19908;-72
2022/06/25 00:02:48;;;;;;;;;;;14.80;99.90;;;;;;5095855;28;19908;-72
2022/06/25 00:05:29;;;;;;;;;;;14.90;99.90;;;;;;5095941;28;19919;-72
2022/06/25 00:07:58;;;;;;;;;;;14.90;99.90;;;;;;5085348;28;20249;-72
2022/06/25 00:10:24;;;;;;;;;;;14.90;99.90;;;;;;5091079;28;19915;-73
2022/06/25 00:12:50;;;;;;;;;;;14.90;99.90;;;;;;5074192;28;19909;-73
2022/06/25 00:15:16;;;;;;;;;;;14.90;99.90;;;;;;5075048;28;19908;-73
2022/06/25 00:17:41;;;;;;;;;;;14.90;99.90;;;;;;5075215;28;19916;-72
2022/06/25 00:20:07;;;;;;;;;;;14.90;99.90;;;;;;5074785;28;19912;-73
2022/06/25 00:22:33;;;;;;;;;;;14.90;99.90;;;;;;5074794;28;19931;-72
2022/06/25 00:24:59;;;;;;;;;;;14.90;99.90;;;;;;5074767;28;19913;-73
2022/06/25 00:27:24;;;;;;;;;;;14.90;99.90;;;;;;5074657;28;19908;-73
2022/06/25 00:29:50;;;;;;;;;;;14.90;99.90;;;;;;5077072;28;19905;-72
2022/06/25 00:32:16;;;;;;;;;;;14.90;99.90;;;;;;5074619;28;19954;-74
2022/06/25 00:34:41;;;;;;;;;;;15.00;99.90;;;;;;5074790;28;19904;-73
2022/06/25 00:37:07;;;;;;;;;;;15.00;99.90;;;;;;5074555;28;19905;-73
2022/06/25 00:39:33;;;;;;;;;;;15.00;99.90;;;;;;5073072;28;19908;-73
2022/06/25 00:41:59;;;;;;;;;;;15.00;99.90;;;;;;5073993;28;19963;-72
2022/06/25 00:44:27;;;;;;;;;;;15.00;99.90;;;;;;5073839;28;20004;-72
2022/06/25 00:46:52;;;;;;;;;;;15.00;99.90;;;;;;5074055;28;19947;-73
2022/06/25 00:49:18;;;;;;;;;;;15.00;99.90;;;;;;5073455;28;20268;-73
2022/06/25 00:51:46;;;;;;;;;;;15.00;99.90;;;;;;5073353;28;19912;-73
2022/06/25 00:54:13;;;;;;;;;;;15.00;99.90;;;;;;5073469;28;19916;-73
2022/06/25 00:56:43;;;;;;;;;;;15.00;99.90;;;;;;5073237;28;19904;-73
2022/06/25 00:59:09;;;;;;;;;;;15.00;99.90;;;;;;5074441;28;19904;-72
2022/06/25 01:01:35;;;;;;;;;;;15.00;99.90;;;;;;5093321;28;25124;-72
2022/06/25 01:04:01;;;;;;;;;;;15.00;99.90;;;;;;5087861;28;19908;-72
2022/06/25 01:06:28;;;;;;;;;;;15.00;99.90;;;;;;5086847;28;20378;-72
2022/06/25 01:08:55;;;;;;;;;;;14.90;99.90;;;;;;5091048;28;19961;-72
2022/06/25 01:11:21;;;;;;;;;;;14.90;99.90;;;;;;5091538;28;19904;-72
2022/06/25 01:13:46;;;;;;;;;;;14.80;99.90;;;;;;5092780;28;24074;-72
2022/06/25 01:16:12;;;;;;;;;;;14.70;99.90;;;;;;5091321;28;25054;-72
2022/06/25 01:18:37;;;;;;;;;;;14.70;99.90;;;;;;5093183;28;19950;-72
2022/06/25 01:21:03;;;;;;;;;;;14.60;99.90;;;;;;5092734;28;19930;-73
2022/06/25 01:23:29;;;;;;;;;;;14.60;99.90;;;;;;5091551;28;19961;-72
2022/06/25 01:25:55;;;;;;;;;;;14.50;99.90;;;;;;5089333;28;19904;-72
2022/06/25 01:28:20;;;;;;;;;;;14.50;99.90;;;;;;5091182;28;24818;-72
2022/06/25 01:30:46;;;;;;;;;;;14.50;99.90;;;;;;5092351;28;19918;-72
2022/06/25 01:33:11;;;;;;;;;;;14.40;99.90;;;;;;5086259;28;19914;-72
2022/06/25 01:35:37;;;;;;;;;;;14.50;99.90;;;;;;5092207;28;24109;-71
2022/06/25 01:38:03;;;;;;;;;;;14.40;99.90;;;;;;5081689;28;19904;-72
2022/06/25 01:40:28;;;;;;;;;;;14.40;99.90;;;;;;5072428;28;19958;-72
2022/06/25 01:43:01;;;;;;;;;;;14.40;99.90;;;;;;5072557;28;20360;-72
2022/06/25 01:45:26;;;;;;;;;;;14.40;99.90;;;;;;5072613;28;20360;-72
2022/06/25 01:47:52;;;;;;;;;;;14.40;99.90;;;;;;5072306;28;19915;-72
2022/06/25 01:50:17;;;;;;;;;;;14.50;99.90;;;;;;5071157;28;19950;-73
2022/06/25 01:52:43;;;;;;;;;;;14.50;99.90;;;;;;5072360;28;19951;-72
2022/06/25 01:55:09;;;;;;;;;;;14.60;99.90;;;;;;5072493;28;19954;-73
2022/06/25 01:57:35;;;;;;;;;;;14.60;99.90;;;;;;5072541;28;19904;-72
2022/06/25 02:00:00;;;;;;;;;;;14.60;99.90;;;;;;5080926;28;19908;-72
2022/06/25 02:02:26;;;;;;;;;;;14.60;99.90;;;;;;5092545;28;19904;-72
2022/06/25 02:04:51;;;;;;;;;;;14.70;99.90;;;;;;5075806;28;19953;-73
2022/06/25 02:07:17;;;;;;;;;;;14.70;99.90;;;;;;5072562;28;19904;-73
2022/06/25 02:09:42;;;;;;;;;;;14.80;99.90;;;;;;5072777;28;19904;-73
2022/06/25 02:12:08;;;;;;;;;;;14.80;99.90;;;;;;5072422;28;24055;-72
2022/06/25 02:14:34;;;;;;;;;;;14.80;99.90;;;;;;5089311;28;19904;-72
2022/06/25 02:17:00;;;;;;;;;;;14.80;99.90;;;;;;5092630;28;19904;-72
2022/06/25 02:19:25;;;;;;;;;;;14.80;99.90;;;;;;5092609;28;19999;-74
2022/06/25 02:21:51;;;;;;;;;;;14.80;99.90;;;;;;5092433;28;19904;-72
2022/06/25 02:24:16;;;;;;;;;;;14.80;99.90;;;;;;5091861;28;19908;-73
2022/06/25 02:26:42;;;;;;;;;;;14.80;99.90;;;;;;5092229;28;19908;-74
2022/06/25 02:29:08;;;;;;;;;;;14.70;99.90;;;;;;5091856;28;19910;-72
2022/06/25 02:31:33;;;;;;;;;;;14.60;99.90;;;;;;5092236;28;19904;-73
2022/06/25 02:33:59;;;;;;;;;;;14.60;99.90;;;;;;5086096;28;19943;-73
2022/06/25 02:36:25;;;;;;;;;;;14.50;99.90;;;;;;5072081;28;19905;-73
2022/06/25 02:38:50;;;;;;;;;;;14.50;99.90;;;;;;5072157;28;19904;-72
2022/06/25 02:41:16;;;;;;;;;;;14.40;99.90;;;;;;5071911;28;19905;-73
2022/06/25 02:43:41;;;;;;;;;;;14.40;99.90;;;;;;5072237;28;19908;-74
2022/06/25 02:46:07;;;;;;;;;;;14.40;99.90;;;;;;5071541;28;19943;-73
2022/06/25 02:48:33;;;;;;;;;;;14.40;99.90;;;;;;5071671;28;20256;-74
2022/06/25 02:50:59;;;;;;;;;;;14.40;99.90;;;;;;5071428;28;19908;-73
2022/06/25 02:53:24;;;;;;;;;;;14.50;99.90;;;;;;5072447;28;19915;-72
2022/06/25 03:01:18;;;;;;;;;;;14.50;99.90;;;;;;5075013;28;20371;-72
2022/06/25 03:03:43;;;;;;;;;;;14.50;99.90;;;;;;5072732;28;19999;-72
2022/06/25 03:06:09;;;;;;;;;;;14.50;99.90;;;;;;5071676;28;24133;-72
2022/06/25 03:08:35;;;;;;;;;;;14.50;99.90;;;;;;5071513;28;19904;-73
2022/06/25 03:11:01;;;;;;;;;;;14.50;99.90;;;;;;5072276;28;19904;-71
2022/06/25 03:13:28;;;;;;;;;;;14.50;99.90;;;;;;5075908;28;19959;-72
2022/06/25 03:15:54;;;;;;;;;;;14.50;99.90;;;;;;5093168;28;19950;-71
2022/06/25 03:18:20;;;;;;;;;;;14.50;99.90;;;;;;5075184;28;19904;-73
2022/06/25 03:20:45;;;;;;;;;;;14.50;99.90;;;;;;5078075;28;19953;-72
2022/06/25 03:23:11;;;;;;;;;;;14.60;99.90;;;;;;5095263;28;19908;-71
2022/06/25 03:25:36;;;;;;;;;;;14.60;99.90;;;;;;5095206;28;19987;-72
2022/06/25 03:28:02;;;;;;;;;;;14.60;99.90;;;;;;5095362;28;24086;-73
2022/06/25 03:30:27;;;;;;;;;;;14.60;99.90;;;;;;5094875;28;19904;-73
2022/06/25 03:32:53;;;;;;;;;;;14.50;99.90;;;;;;5080119;28;19904;-73
2022/06/25 03:35:18;;;;;;;;;;;14.50;99.90;;;;;;5078211;28;19953;-73
2022/06/25 03:37:44;;;;;;;;;;;14.50;99.90;;;;;;5074964;28;20399;-72
2022/06/25 03:40:10;;;;;;;;;;;14.50;99.90;;;;;;5074671;28;24119;-72
2022/06/25 03:42:35;;;;;;;;;;;14.50;99.90;;;;;;5074460;28;24068;-71
2022/06/25 03:45:01;;;;;;;;;;;14.50;99.90;;;;;;5074742;28;19908;-71
2022/06/25 03:47:27;;;;;;;;;;;14.40;99.90;;;;;;5093435;28;19904;-72
2022/06/25 03:49:53;;;;;;;;;;;14.40;99.90;;;;;;5074940;28;19908;-72
2022/06/25 03:52:19;;;;;;;;;;;14.30;99.90;;;;;;5079860;28;19912;-72
2022/06/25 03:54:45;;;;;;;;;;;14.20;99.90;;;;;;5095054;28;19911;-71
2022/06/25 03:57:10;;;;;;;;;;;14.30;99.90;;;;;;5095200;28;19911;-71
2022/06/25 03:59:36;;;;;;;;;;;14.20;99.90;;;;;;5094703;28;19904;-71
2022/06/25 04:02:02;;;;;;;;;;;14.20;99.90;;;;;;5093449;28;19987;-72
2022/06/25 04:04:27;;;;;;;;;;;14.20;99.90;;;;;;5073348;28;19991;-72
2022/06/25 04:06:53;;;;;;;;;;;14.30;99.90;;;;;;5074212;28;19904;-72
2022/06/25 04:09:18;;;;;;;;;;;14.30;99.90;;;;;;5093356;28;19904;-72
2022/06/25 04:11:44;;;;;;;;;;;14.30;99.90;;;;;;5094479;28;19990;-72
2022/06/25 04:14:09;;;;;;;;;;;14.30;99.90;;;;;;5093909;28;24097;-71
2022/06/25 04:16:35;;;;;;;;;;;14.20;99.90;;;;;;5094442;28;19939;-72
2022/06/25 04:19:00;;;;;;;;;;;14.20;99.90;;;;;;5094151;28;24086;-71
2022/06/25 04:21:27;;;;;;;;;;;14.10;99.90;;;;;;5094526;28;19904;-72
2022/06/25 04:23:52;;;;;;;;;;;14.20;99.90;;;;;;5094283;28;19999;-71
2022/06/25 04:26:18;;;;;;;;;;;14.20;99.90;;;;;;5094711;28;19940;-71
2022/06/25 04:31:27;;;;;;;;;;;14.20;99.90;;;;;;5094393;28;20412;-71
2022/06/25 04:33:53;;;;;;;;;;;14.30;99.90;;;;;;5083600;28;19904;-71
2022/06/25 04:36:19;;;;;;;;;;;14.30;99.90;;;;;;5074552;28;20268;-72
2022/06/25 04:38:44;;;;;;;;;;;14.30;99.90;;;;;;5082083;28;19942;-72
2022/06/25 04:41:10;;;;;;;;;;;14.40;99.90;;;;;;5094051;28;19912;-72
2022/06/25 04:43:36;;;;;;;;;;;14.40;99.90;;;;;;5094710;28;19963;-72
2022/06/25 04:46:01;;;;;;;;;;;14.50;99.90;;;;;;5094052;28;19904;-71
2022/06/25 04:48:27;;;;;;;;;;;14.50;99.90;;;;;;5094379;28;19995;-72
2022/06/25 04:50:53;;;;;;;;;;;14.50;99.90;;;;;;5093681;28;20283;-73
2022/06/25 04:53:18;;;;;;;;;;;14.50;99.90;;;;;;5093899;28;19908;-73
2022/06/25 04:55:44;;;;;;;;;;;14.60;99.90;;;;;;5093583;28;24062;-73
2022/06/25 04:58:10;;;;;;;;;;;14.60;99.90;;;;;;5093630;28;20348;-72
2022/06/25 05:00:36;;;;;;;;;;;14.60;99.90;;;;;;5093395;28;19990;-72
2022/06/25 05:03:01;;;;;;;;;;;14.50;99.90;;;;;;5093942;28;24084;-73
2022/06/25 05:05:27;;;;;;;;;;;14.40;99.90;;;;;;5074652;28;20055;-72
2022/06/25 05:07:52;;;;;;;;;;;14.40;99.90;;;;;;5072929;28;20045;-72
2022/06/25 05:10:19;;;;;;;;;;;14.30;99.90;;;;;;5088626;28;19928;-72
2022/06/25 05:15:29;;;;;;;;;;;14.30;99.90;;;;;;5072723;28;20614;-71
2022/06/25 05:17:54;;;;;;;;;;;14.30;99.90;;;;;;5073878;28;19999;-71
2022/06/25 05:20:20;;;;;;;;;;;14.40;99.90;;;;;;5079373;28;20257;-72
2022/06/25 05:22:45;;;;;;;;;;;14.40;99.90;;;;;;5093784;28;19996;-71
2022/06/25 05:25:11;;;;;;;1.83;0.47;;;14.40;99.90;;;;;;5094264;28;20032;-72
2022/06/25 05:27:37;;;;;;;1.23;0.43;;;14.50;99.90;;;;;;5094087;28;20078;-72
2022/06/25 05:30:05;;;;;;;1.20;0.47;;;14.40;99.90;;;;;;5094177;28;20422;-72
2022/06/25 05:32:31;;;;;;;0.60;0.40;;;14.40;99.90;;;;;;5094850;28;20031;-72
2022/06/25 05:34:57;;;;;;;1.88;0.40;;;14.40;99.90;;;;;;5092254;28;20028;-72
2022/06/25 05:37:24;;;;;;;2.63;0.50;;;14.40;99.90;;;;;;5094169;28;20024;-72
2022/06/25 05:39:50;;;;;;;1.58;0.47;;;14.40;99.90;;;;;;5093738;28;20028;-71
2022/06/25 05:42:15;;;;;;;1.40;0.47;;;14.50;99.90;;;;;;5093803;28;20028;-71
2022/06/25 05:44:41;;;;;;;0.60;0.40;;;14.50;99.90;;;;;;5093446;28;20028;-71
2022/06/25 05:47:07;;;;;;;2.03;0.47;;;14.50;99.90;;;;;;5093596;28;20027;-72
2022/06/25 05:49:32;;;;;;;1.67;0.47;;;14.60;99.90;;;;;;5094046;28;20024;-71
2022/06/25 05:51:58;;;;;;;1.27;0.40;;;14.60;99.90;;;;;;5093341;28;20043;-72
2022/06/25 05:54:23;;;;;;;0.73;0.40;;;14.60;99.90;;;;;;5093702;28;20028;-71
2022/06/25 05:56:49;;;;;;;0.70;0.32;;;14.70;99.90;;;;;;5092377;28;20137;-72
2022/06/25 05:59:16;;;;;;;1.80;0.70;;;14.70;99.90;;;;;;5093598;28;20035;-72
2022/06/25 06:01:41;;;;;;;0.80;0.40;;;14.70;99.90;;;;;;5093286;28;20020;-71
2022/06/25 06:04:07;;;;;;;1.95;0.45;;;14.80;99.90;;;;;;5093453;28;20039;-71
2022/06/25 06:06:33;;;;;;;1.00;0.50;;;14.80;99.90;;;;;;5084038;28;20396;-71
2022/06/25 06:08:58;;;;;;;0.60;0.38;;;14.80;99.90;;;;;;5073383;28;20392;-71
2022/06/25 06:11:24;;;;;;;2.00;0.47;;;14.80;99.90;;;;;;5073442;28;20086;-71
2022/06/25 06:13:50;;;;;;;1.27;0.43;;;14.90;99.90;;;;;;5073277;28;20025;-71
2022/06/25 06:16:16;;;;;;;0.95;0.47;;;14.90;99.90;;;;;;5073072;28;20078;-71
2022/06/25 06:18:41;;;;;;;1.33;0.60;;;14.90;99.90;;;;;;5073786;28;20025;-71
2022/06/25 06:21:07;;;;;;;1.17;0.50;;;15.00;99.90;;;;;;5073089;28;20036;-71
2022/06/25 06:23:33;;;;;;;1.40;0.32;;;15.00;99.90;;;;;;5088633;28;20032;-71
2022/06/25 06:25:58;;;;;;;1.23;0.50;;;15.20;99.90;;;;;;5073148;28;20032;-71
2022/06/25 06:28:24;;;;;;;0.57;0.30;;;15.20;99.90;;;;;;5073401;28;20027;-71
2022/06/25 06:30:50;;;;;;;1.73;0.50;;;15.30;99.90;;;;;;5077811;28;20023;-71
2022/06/25 06:33:15;;;;;;;0.90;0.50;;;15.30;99.90;;;;;;5073095;28;20093;-71
2022/06/25 06:35:41;;;;;;;1.05;0.50;;;15.40;99.90;;;;;;5073361;28;20099;-72
2022/06/25 06:38:07;;;;;;;1.67;0.63;;;15.60;99.90;;;;;;5072985;28;20040;-72
2022/06/25 06:40:32;;;;;;;1.50;0.50;;;15.70;99.90;;;;;;5071690;28;20485;-72
2022/06/25 06:42:58;;;;;;;1.55;0.68;;;15.80;99.90;;;;;;5072948;28;20028;-72
2022/06/25 06:45:24;;;;;;;3.03;0.60;;;15.80;99.90;;;;;;5072836;28;20024;-72
2022/06/25 06:47:49;;;;;;;1.85;0.70;;;15.90;99.90;;;;;;5076730;28;20023;-72
2022/06/25 06:50:15;;;;;;;1.48;0.50;;;15.90;99.90;;;;;;5076778;28;20099;-72
2022/06/25 06:52:41;;;;;;;0.98;0.55;;;15.90;99.90;;;;;;5076664;28;20068;-72
2022/06/25 06:55:07;;;;;;;1.98;0.60;;;16.00;99.90;;;;;;5076938;28;20028;-72
2022/06/25 06:57:34;;;;;;;1.30;0.50;;;16.10;99.90;;;;;;5076656;28;20036;-71
2022/06/25 07:00:04;;;;;;;0.70;0.40;;;16.20;99.90;;;;;;5084976;28;20027;-72
2022/06/25 07:02:30;;;;;;;1.23;0.60;;;16.40;99.90;;;;;;5096913;28;20028;-72
2022/06/25 07:04:56;;;;;;;2.15;0.68;;;16.50;99.90;;;;;;5096950;28;20027;-71
2022/06/25 07:07:22;;;;;;;2.30;0.80;;;16.60;99.90;;;;;;5097333;28;20035;-72
2022/06/25 07:09:48;;;;;;;2.85;0.85;;;16.60;99.90;;;;;;5094628;28;20388;-72
2022/06/25 07:12:13;;;;;;;2.00;1.10;;;16.60;99.90;;;;;;5076558;28;20384;-71
2022/06/25 07:14:39;;;;;;;2.72;1.13;;;16.70;99.90;;;;;;5076822;28;20029;-70
2022/06/25 07:17:04;;;;;;;1.98;1.10;;;16.80;99.90;;;;;;5085381;28;20438;-70
2022/06/25 07:19:30;;;;;;;1.80;0.85;;;16.80;99.90;;;;;;5096476;28;20024;-71
2022/06/25 07:21:57;;;;;;;2.55;0.80;;;16.90;99.90;;;;;;5096191;28;20027;-71
2022/06/25 07:24:23;;;;;;;2.10;1.13;;;17.00;99.90;;;;;;5096327;28;20158;-70
2022/06/25 07:26:49;;;;;;;1.52;0.90;;;17.10;99.90;;;;;;5096164;28;20021;-71
2022/06/25 07:29:15;;;;;;;5.90;0.90;;;17.20;99.90;;;;;;5096201;28;20034;-70
2022/06/25 07:31:41;;;;;;;1.35;0.70;;;17.30;99.90;;;;;;5092506;28;20484;-71
2022/06/25 07:34:06;;;;;;;2.20;0.57;;;17.30;99.90;;;;;;5076298;28;20115;-71
2022/06/25 07:36:32;;;;;;;1.20;0.70;;;17.30;99.90;;;;;;5075824;28;20036;-71
2022/06/25 07:39:00;;;;;;;3.67;1.00;;;17.50;99.90;;;;;;5075931;28;20112;-71
2022/06/25 07:41:26;;;;;;;1.83;1.13;;;17.60;99.90;;;;;;5076196;28;20035;-71
2022/06/25 07:43:52;;;;;;;1.83;1.00;;;17.70;99.90;;;;;;5075610;28;20031;-71
2022/06/25 07:46:21;;;;;;;2.30;1.30;;;17.80;99.90;;;;;;5075480;28;20020;-71
2022/06/25 07:48:49;;;;;;;3.08;1.17;;;17.80;99.90;;;;;;5075573;28;20074;-71
2022/06/25 07:53:59;;;;;;;2.25;1.50;;;18.00;99.90;;;;;;5075879;28;20035;-71
2022/06/25 07:56:25;;;;;;;3.58;1.17;;;18.10;99.90;;;;;;5075292;28;20367;-71
2022/06/25 07:58:51;;;;;;;1.23;0.70;;;18.10;99.90;;;;;;5075774;28;20020;-71
2022/06/25 08:01:16;;;;;;;1.38;0.73;;;18.20;99.90;;;;;;5094564;28;20073;-71
2022/06/25 08:03:42;;;;;;;2.60;1.00;;;18.30;99.90;;;;;;5095568;28;20097;-71
2022/06/25 08:06:09;;;;;;;1.83;0.70;;;18.40;99.90;;;;;;5095887;28;20039;-72
2022/06/25 08:08:39;;;;;;;1.05;0.60;;;18.40;99.90;;;;;;5095841;28;20147;-71
2022/06/25 08:11:05;;;;;;;1.80;0.68;;;18.50;99.90;;;;;;5095431;28;20102;-71
2022/06/25 08:13:36;;;;;;;1.63;0.60;;;18.60;99.90;;;;;;5095532;28;20027;-71
2022/06/25 08:16:02;;;;;;;;;;;18.70;99.90;;;;;;5078630;28;20020;-71
2022/06/25 08:18:28;;;;;;;1.15;0.60;;;18.80;99.90;;;;;;5075224;28;20292;-72
2022/06/25 08:20:53;;;;;;;1.27;0.47;;;19.00;99.90;;;;;;5075037;28;20021;-72
2022/06/25 08:23:19;;;;;;;1.10;0.50;;;19.10;99.90;;;;;;5075545;28;20028;-72
2022/06/25 08:25:45;;;;;;;0.73;0.40;;;19.30;99.90;;;;;;5074908;28;20431;-72
2022/06/25 08:28:10;;;;;;;1.63;0.50;;;19.50;99.90;;;;;;5074960;28;20550;-72
2022/06/25 08:30:36;;;;;;;0.68;0.50;;;19.70;99.90;;;;;;5100571;28;20027;-72
2022/06/25 08:33:02;;;;;;;1.00;0.47;;;19.90;99.90;;;;;;5074712;28;20013;-72
2022/06/25 08:35:28;;;;;;;1.08;0.40;;;20.20;99.90;;;;;;5074754;28;20078;-72
2022/06/25 08:37:54;;;;;;;1.30;0.40;;;20.30;99.90;;;;;;5074581;28;20022;-72
2022/06/25 08:40:21;;;;;;;1.17;0.50;;;20.40;99.90;;;;;;5074958;28;20021;-72
2022/06/25 08:42:49;;;;;;;0.95;0.50;;;20.50;99.90;;;;;;5074517;28;20037;-72
2022/06/25 08:45:17;;;;;;;0.93;0.38;;;20.60;99.90;;;;;;5074395;28;20028;-72
2022/06/25 08:47:52;;;;;;;0.68;0.43;;;20.90;99.90;;;;;;5080525;28;20586;-72
2022/06/25 08:50:23;;;;;;;0.63;0.60;;;21.10;99.50;;;;;;5094746;28;20024;-73
2022/06/25 08:52:51;;;;;;;1.52;0.50;;;21.20;97.20;;;;;;5094511;28;20039;-72
2022/06/25 08:55:34;;;;;;;0.30;0.30;;;21.30;98.30;;;;;;5094792;28;20020;-73
2022/06/25 08:58:00;;;;;;;0.73;0.40;;;21.30;98.00;;;;;;5095066;28;20044;-73
2022/06/25 09:00:28;;;;;;;1.75;0.40;;;21.40;96.70;;;;;;5094018;28;20103;-72
2022/06/25 09:02:54;;;;;;;1.05;0.43;;;21.40;95.60;;;;;;5083575;28;20035;-73
2022/06/25 09:05:40;;;;;;;0.93;0.45;;;21.50;95.60;;;;;;5074373;28;20025;-73
2022/06/25 09:08:08;;;;;;;0.90;0.50;;;21.70;96.50;;;;;;5089430;28;20499;-73
2022/06/25 09:10:35;;;;;;;2.35;0.30;;;21.80;95.30;;;;;;5074022;28;20480;-73
2022/06/25 09:13:04;;;;;;;0.93;0.40;;;21.80;94.30;;;;;;5073991;28;20389;-73
2022/06/25 09:15:34;;;;;;;0.85;0.40;;;21.70;93.70;;;;;;5073726;28;20035;-72
2022/06/25 09:18:25;;;;;;;0.93;0.40;;;21.60;94.60;;;;;;5073839;28;20086;-72
2022/06/25 09:21:07;;;;;;;1.02;0.30;;;21.70;94.30;;;;;;5071707;28;20039;-73
2022/06/25 09:23:52;;;;;;;1.35;0.40;;;21.80;91.60;;;;;;5074062;28;20103;-73
2022/06/25 09:26:18;;;;;;;2.05;0.40;;;21.90;93.20;;;;;;5073748;28;20013;-73
2022/06/25 09:28:46;;;;;;;0.50;0.20;;;22.10;92.80;;;;;;5089460;28;20392;-73
2022/06/25 09:31:12;;;;;;;0.52;0.28;;;22.10;92.90;;;;;;5092039;28;20023;-72
2022/06/25 09:33:40;;;;;;;2.07;0.30;;;22.20;91.60;;;;;;5094265;28;20065;-73
2022/06/25 09:36:10;;;;;;;4.65;0.55;;;22.20;90.10;;;;;;5081885;28;20044;-72
2022/06/25 09:38:48;;;;;;;0.50;0.20;;;22.20;90.50;;;;;;5073642;28;20032;-73
2022/06/25 09:41:14;;;;;;;;;;;22.30;90.30;;;;;;5073571;28;20392;-73
2022/06/25 09:43:41;;;;;;;;;;;22.30;87.80;;;;;;5073906;28;20053;-72
2022/06/25 09:46:07;;;;;;;;;;;22.30;87.60;;;;;;5073863;28;19986;-72
2022/06/25 09:48:34;;;;;;;;;;;22.50;89.90;;;;;;5073963;28;19943;-73
2022/06/25 09:51:10;;;;;;;;;;;22.60;87.50;;;;;;5073747;28;19959;-74
2022/06/25 09:53:47;;;;;;;;;;;22.70;86.90;;;;;;5074517;28;19907;-71
2022/06/25 09:56:13;;;;;;;;;;;22.80;85.50;;;;;;5072578;28;19915;-73
2022/06/25 09:58:39;;;;;;;;;;;22.90;86.80;;;;;;5074051;28;19936;-73
2022/06/25 10:01:05;;;;;;;;;;;23.00;86.70;;;;;;5089845;28;19926;-73
2022/06/25 10:03:31;;;;;;;;;;;23.10;87.90;;;;;;5073606;28;19905;-72
2022/06/25 10:05:58;;;;;;;;;;;23.10;87.10;;;;;;5073622;28;20386;-71
2022/06/25 10:08:24;;;;;;;;;;;23.00;88.40;;;;;;5094201;28;19956;-72
2022/06/25 10:10:50;;;;;;;;;;;23.00;82.60;;;;;;5093473;28;19908;-72
2022/06/25 10:13:19;;;;;;;;;;;23.10;81.20;;;;;;5093898;28;19904;-72
2022/06/25 10:15:45;;;;;;;;;;;23.10;86.30;;;;;;5093872;28;19994;-72
2022/06/25 10:18:11;;;;;;;;;;;23.30;83.80;;;;;;5093846;28;19904;-71
2022/06/25 10:20:37;;;;;;;;;;;23.50;81.80;;;;;;5094551;28;20429;-71
2022/06/25 10:23:04;;;;;;;;;;;23.70;83.60;;;;;;5097904;28;20007;-71
2022/06/25 10:25:30;;;;;;;;;;;23.70;81.90;;;;;;5097886;28;20328;-71
2022/06/25 10:28:06;;;;;;;;;;;23.70;80.50;;;;;;5097490;28;19954;-72
2022/06/25 10:30:35;;;;;;;;;;;23.80;82.40;;;;;;5097573;28;20352;-71
2022/06/25 10:33:01;;;;;;;;;;;23.90;80.80;;;;;;5097548;28;20260;-71
2022/06/25 10:35:31;;;;;;;;;;;23.80;81.00;;;;;;5097472;28;19994;-71
2022/06/25 10:37:58;;;;;;;;;;;23.70;82.20;;;;;;5097601;28;20206;-71
2022/06/25 10:40:23;;;;;;;;;;;23.60;80.50;;;;;;5097817;28;19990;-71
2022/06/25 10:43:00;;;;;;;;;;;23.80;79.20;;;;;;5097393;28;19939;-71
2022/06/25 10:45:26;;;;;;;;;;;24.00;79.10;;;;;;5097430;28;19995;-71
2022/06/25 10:47:53;;;;;;;;;;;24.10;78.50;;;;;;5097323;28;19958;-71
2022/06/25 10:50:22;;;;;;;;;;;24.20;80.00;;;;;;5097291;28;19927;-71
2022/06/25 10:53:05;;;;;;;;;;;24.30;77.00;;;;;;5097072;28;19912;-71
2022/06/25 10:55:31;;;;;;;;;;;24.40;77.00;;;;;;5097359;28;19933;-71
2022/06/25 10:58:26;;;;;;;;;;;24.40;73.00;;;;;;5096569;28;20409;-71
2022/06/25 11:00:58;;;;;;;;;;;24.40;74.50;;;;;;5079347;28;20333;-71
2022/06/25 11:03:27;;;;;;;;;;;24.60;76.20;;;;;;5095901;28;19908;-72
2022/06/25 11:05:53;;;;;;;;;;;24.40;74.30;;;;;;5095950;28;19908;-72
2022/06/25 11:08:19;;;;;;;;;;;24.30;76.30;;;;;;5097396;28;19904;-72
2022/06/25 11:10:44;;;;;;;;;;;24.20;75.50;;;;;;5096866;28;20268;-71
2022/06/25 11:13:10;;;;;;;;;;;24.10;74.20;;;;;;5097087;28;19904;-71
2022/06/25 11:15:39;;;;;;;;;;;24.00;77.70;;;;;;5097363;28;20420;-72
2022/06/25 11:18:08;;;;;;;;;;;24.00;77.80;;;;;;5096994;28;19911;-72
2022/06/25 11:20:33;;;;;;;;;;;24.00;75.50;;;;;;5095613;28;19915;-72
2022/06/25 11:22:59;;;;;;;;;;;24.00;74.70;;;;;;5097157;28;20298;-72
2022/06/25 11:30:53;;;;;;;;;;;23.90;74.30;;;;;;5096682;28;20049;-72
2022/06/25 11:33:18;;;;;;;;;;;24.00;77.50;;;;;;5094991;28;19953;-73
2022/06/25 11:35:44;;;;;;;;;;;24.00;76.00;;;;;;5095232;28;19904;-72
2022/06/25 11:38:17;;;;;;;;;;;24.10;74.80;;;;;;5096585;28;19904;-72
2022/06/25 11:40:43;;;;;;;;;;;24.00;75.20;;;;;;5095269;28;19908;-72
2022/06/25 11:43:09;;;;;;;;;;;24.20;74.80;;;;;;5095234;28;19949;-72
2022/06/25 11:45:54;;;;;;;;;;;24.40;75.00;;;;;;5089046;28;19915;-72
2022/06/25 11:48:24;;;;;;;;;;;24.60;75.70;;;;;;5076471;28;19950;-73
2022/06/25 11:50:53;;;;;;;;;;;24.70;77.20;;;;;;5074666;28;19962;-74
2022/06/25 11:53:19;;;;;;;;;;;24.90;71.20;;;;;;5076400;28;19935;-73
2022/06/25 11:56:05;;;;;;;;;;;24.90;74.60;;;;;;5076320;28;19913;-73
2022/06/25 11:58:31;;;;;;;;;;;25.00;75.40;;;;;;5075818;28;20447;-73
2022/06/25 12:00:58;;;;;;;;;;;25.10;71.30;;;;;;5092065;28;19947;-73
2022/06/25 12:03:24;;;;;;;;;;;25.10;70.30;;;;;;5080995;28;19947;-72
2022/06/25 12:05:50;;;;;;;;;;;25.00;72.00;;;;;;5076164;28;19908;-72
2022/06/25 12:08:16;;;;;;;;;;;25.00;72.50;;;;;;5076417;28;19905;-72
2022/06/25 12:10:42;;;;;;;;;;;24.80;71.30;;;;;;5081800;28;19911;-72
2022/06/25 12:13:08;;;;;;;;;;;24.80;71.10;;;;;;5096198;28;20382;-73
2022/06/25 12:15:35;;;;;;;;;;;24.90;73.40;;;;;;5096066;28;19904;-72
2022/06/25 12:18:04;;;;;;;;;;;24.90;71.50;;;;;;5095610;28;20391;-72
2022/06/25 12:20:29;;;;;;;;;;;25.10;69.80;;;;;;5095783;28;20272;-72
2022/06/25 12:22:56;;;;;;;;;;;25.10;67.10;;;;;;5095550;28;19991;-73
2022/06/25 12:25:23;;;;;;;;;;;25.10;69.70;;;;;;5095891;28;19951;-73
2022/06/25 12:27:49;;;;;;;;;;;25.20;66.00;;;;;;5095930;28;19998;-73
2022/06/25 12:30:22;;;;;;;;;;;25.40;69.60;;;;;;5095467;28;19904;-73
2022/06/25 12:32:47;;;;;;;;;;;25.40;67.80;;;;;;5095334;28;19915;-73
2022/06/25 12:35:17;;;;;;;;;;;25.50;65.40;;;;;;5095465;28;19908;-73
2022/06/25 12:37:43;;;;;;;;;;;25.60;67.70;;;;;;5095744;28;19915;-73
2022/06/25 12:40:09;;;;;;;;;;;25.50;62.70;;;;;;5095361;28;20314;-73
2022/06/25 12:42:36;;;;;;;;;;;25.60;63.60;;;;;;5095304;28;19911;-73
2022/06/25 12:45:02;;;;;;;;;;;25.60;64.50;;;;;;5094213;28;19914;-72
2022/06/25 12:47:40;;;;;;;;;;;25.60;64.00;;;;;;5095021;28;19904;-73
2022/06/25 12:50:06;;;;;;;;;;;25.70;66.40;;;;;;5095194;28;19990;-73
2022/06/25 12:52:39;;;;;;;;;;;25.80;66.60;;;;;;5095025;28;20317;-73
2022/06/25 12:55:05;;;;;;;;;;;25.90;64.50;;;;;;5093840;28;19969;-72
2022/06/25 12:57:31;;;;;;;;;;;25.90;64.60;;;;;;5090247;28;20459;-73
2022/06/25 12:59:58;;;;;;;;;;;26.10;62.80;;;;;;5083176;28;19904;-72
2022/06/25 13:02:24;;;;;;;;;;;26.10;64.00;;;;;;5094788;28;19999;-72
2022/06/25 13:04:49;;;;;;;;;;;26.00;65.00;;;;;;5094829;28;19987;-72
2022/06/25 13:07:15;;;;;;;;;;;26.10;63.70;;;;;;5094731;28;19915;-73
2022/06/25 13:09:41;;;;;;;;;;;26.10;65.40;;;;;;5095139;28;19904;-73
2022/06/25 13:12:07;;;;;;;;;;;26.20;64.30;;;;;;5093527;28;19911;-72
2022/06/25 13:14:33;;;;;;;;;;;26.20;62.60;;;;;;5095057;28;19908;-73
2022/06/25 13:16:59;;;;;;;;;;;26.10;62.60;;;;;;5094302;28;20362;-72
2022/06/25 13:19:25;;;;;;;;;;;26.10;64.80;;;;;;5094736;28;20018;-72
2022/06/25 13:21:50;;;;;;;;;;;26.10;63.80;;;;;;5094561;28;19928;-72
2022/06/25 13:24:16;;;;;;;;;;;26.20;64.70;;;;;;5093875;28;20262;-71
2022/06/25 13:26:42;;;;;;;;;;;26.20;64.10;;;;;;5093311;28;19949;-72
2022/06/25 13:29:08;;;;;;;;;;;26.20;65.60;;;;;;5093043;28;19973;-72
2022/06/25 13:31:34;;;;;;;;;;;26.20;62.90;;;;;;5092718;28;19904;-72
2022/06/25 13:33:59;;;;;;;;;;;26.30;65.60;;;;;;5093242;28;20385;-72
2022/06/25 13:36:25;;;;;;;;;;;26.40;63.20;;;;;;5090526;28;20323;-72
2022/06/25 13:38:51;;;;;;;;;;;26.40;64.30;;;;;;5093189;28;19908;-72
2022/06/25 13:41:17;;;;;;;;;;;26.50;64.40;;;;;;5094087;28;20002;-72
2022/06/25 13:43:42;;;;;;;;;;;26.60;59.90;;;;;;5092473;28;19998;-72
2022/06/25 13:46:08;;;;;;;;;;;26.60;59.80;;;;;;5093312;28;19995;-71
2022/06/25 13:48:34;;;;;;;;;;;26.70;59.60;;;;;;5093768;28;19953;-71
2022/06/25 13:50:59;;;;;;;;;;;26.80;60.00;;;;;;5093791;28;19911;-72
2022/06/25 13:53:25;;;;;;;;;;;26.90;58.60;;;;;;5093196;28;19904;-72
2022/06/25 13:55:51;;;;;;;;;;;26.90;60.30;;;;;;5093475;28;19908;-72
2022/06/25 13:58:17;;;;;;;;;;;26.90;61.40;;;;;;5089346;28;20045;-72
2022/06/25 14:00:43;;;;;;;;;;;27.00;61.20;;;;;;5092089;28;20174;-72
2022/06/25 14:03:10;;;;;;;;;;;26.90;61.70;;;;;;5089497;28;19904;-72